sensor_id;sensor_type;location;lat;lon;timestamp;P1;durP1;ratioP1;P2;durP2;ratioP2
7501;SDS011;3792;47.740;7.606;2022-07-06T00:02:04;2.03;;;1.50;;
7501;SDS011;3792;47.740;7.606;2022-07-06T00:04:32;1.73;;;1.60;;
7501;SDS011;3792;47.740;7.606;2022-07-06T00:06:59;2.93;;;1.30;;
7501;SDS011;3792;47.740;7.606;2022-07-06T00:09:27;1.60;;;1.50;;
7501;SDS011;3792;47.740;7.606;2022-07-06T00:11:54;2.30;;;1.60;;
7501;SDS011;3792;47.740;7.606;2022-07-06T00:14:22;1.80;;;1.63;;
7501;SDS011;3792;47.740;7.606;2022-07-06T00:16:49;2.10;;;1.50;;
7501;SDS011;3792;47.740;7.606;2022-07-06T00:19:16;3.80;;;1.80;;
7501;SDS011;3792;47.740;7.606;2022-07-06T00:21:43;2.80;;;1.57;;
7501;SDS011;3792;47.740;7.606;2022-07-06T00:24:11;1.67;;;1.57;;
7501;SDS011;3792;47.740;7.606;2022-07-06T00:26:38;3.33;;;1.40;;
7501;SDS011;3792;47.740;7.606;2022-07-06T00:29:05;2.60;;;1.50;;
7501;SDS011;3792;47.740;7.606;2022-07-06T00:31:33;2.47;;;2.00;;
7501;SDS011;3792;47.740;7.606;2022-07-06T00:34:00;1.70;;;1.60;;
7501;SDS011;3792;47.740;7.606;2022-07-06T00:36:27;1.53;;;1.43;;
7501;SDS011;3792;47.740;7.606;2022-07-06T00:38:55;2.50;;;1.53;;
7501;SDS011;3792;47.740;7.606;2022-07-06T00:41:22;1.50;;;1.50;;
7501;SDS011;3792;47.740;7.606;2022-07-06T00:43:50;2.03;;;1.53;;
7501;SDS011;3792;47.740;7.606;2022-07-06T00:46:20;1.57;;;1.47;;
7501;SDS011;3792;47.740;7.606;2022-07-06T00:48:54;2.33;;;1.47;;
7501;SDS011;3792;47.740;7.606;2022-07-06T00:51:22;2.50;;;1.63;;
7501;SDS011;3792;47.740;7.606;2022-07-06T00:53:53;1.60;;;1.40;;
7501;SDS011;3792;47.740;7.606;2022-07-06T00:56:23;2.57;;;1.40;;
7501;SDS011;3792;47.740;7.606;2022-07-06T00:58:52;1.80;;;1.70;;
7501;SDS011;3792;47.740;7.606;2022-07-06T01:01:20;3.00;;;1.50;;
7501;SDS011;3792;47.740;7.606;2022-07-06T01:03:47;1.60;;;1.50;;
7501;SDS011;3792;47.740;7.606;2022-07-06T01:06:16;2.53;;;1.60;;
7501;SDS011;3792;47.740;7.606;2022-07-06T01:08:43;1.47;;;1.37;;
7501;SDS011;3792;47.740;7.606;2022-07-06T01:11:10;2.43;;;1.33;;
7501;SDS011;3792;47.740;7.606;2022-07-06T01:13:37;2.53;;;1.53;;
7501;SDS011;3792;47.740;7.606;2022-07-06T01:16:06;1.60;;;1.50;;
7501;SDS011;3792;47.740;7.606;2022-07-06T01:18:33;3.43;;;1.63;;
7501;SDS011;3792;47.740;7.606;2022-07-06T01:21:09;3.63;;;1.73;;
7501;SDS011;3792;47.740;7.606;2022-07-06T01:23:40;5.43;;;1.50;;
7501;SDS011;3792;47.740;7.606;2022-07-06T01:26:09;1.97;;;1.77;;
7501;SDS011;3792;47.740;7.606;2022-07-06T01:28:38;1.53;;;1.40;;
7501;SDS011;3792;47.740;7.606;2022-07-06T01:31:05;2.33;;;1.20;;
7501;SDS011;3792;47.740;7.606;2022-07-06T01:33:40;2.53;;;1.33;;
7501;SDS011;3792;47.740;7.606;2022-07-06T01:36:09;1.17;;;1.07;;
7501;SDS011;3792;47.740;7.606;2022-07-06T01:38:42;5.00;;;1.43;;
7501;SDS011;3792;47.740;7.606;2022-07-06T01:41:12;3.47;;;1.40;;
7501;SDS011;3792;47.740;7.606;2022-07-06T01:43:39;2.20;;;1.40;;
7501;SDS011;3792;47.740;7.606;2022-07-06T01:46:06;2.40;;;1.27;;
7501;SDS011;3792;47.740;7.606;2022-07-06T01:48:33;2.30;;;1.20;;
7501;SDS011;3792;47.740;7.606;2022-07-06T01:51:00;1.50;;;1.40;;
7501;SDS011;3792;47.740;7.606;2022-07-06T01:53:29;3.20;;;1.30;;
7501;SDS011;3792;47.740;7.606;2022-07-06T01:55:56;1.43;;;1.30;;
7501;SDS011;3792;47.740;7.606;2022-07-06T01:58:23;2.87;;;1.57;;
7501;SDS011;3792;47.740;7.606;2022-07-06T02:00:50;1.83;;;1.43;;
7501;SDS011;3792;47.740;7.606;2022-07-06T02:03:17;1.90;;;1.30;;
7501;SDS011;3792;47.740;7.606;2022-07-06T02:05:44;1.43;;;1.20;;
7501;SDS011;3792;47.740;7.606;2022-07-06T02:08:11;3.80;;;1.30;;
7501;SDS011;3792;47.740;7.606;2022-07-06T02:10:40;1.37;;;1.20;;
7501;SDS011;3792;47.740;7.606;2022-07-06T02:13:07;2.00;;;1.43;;
7501;SDS011;3792;47.740;7.606;2022-07-06T02:15:34;3.00;;;1.37;;
7501;SDS011;3792;47.740;7.606;2022-07-06T02:18:01;1.50;;;1.37;;
7501;SDS011;3792;47.740;7.606;2022-07-06T02:20:28;2.83;;;1.50;;
7501;SDS011;3792;47.740;7.606;2022-07-06T02:22:55;1.93;;;1.50;;
7501;SDS011;3792;47.740;7.606;2022-07-06T02:25:23;2.47;;;1.50;;
7501;SDS011;3792;47.740;7.606;2022-07-06T02:27:52;2.90;;;1.50;;
7501;SDS011;3792;47.740;7.606;2022-07-06T02:30:19;1.90;;;1.30;;
7501;SDS011;3792;47.740;7.606;2022-07-06T02:32:46;2.60;;;1.30;;
7501;SDS011;3792;47.740;7.606;2022-07-06T02:35:13;2.57;;;1.60;;
7501;SDS011;3792;47.740;7.606;2022-07-06T02:37:40;5.37;;;1.63;;
7501;SDS011;3792;47.740;7.606;2022-07-06T02:40:08;1.70;;;1.33;;
7501;SDS011;3792;47.740;7.606;2022-07-06T02:42:36;1.87;;;1.57;;
7501;SDS011;3792;47.740;7.606;2022-07-06T02:45:05;1.40;;;1.40;;
7501;SDS011;3792;47.740;7.606;2022-07-06T02:47:33;4.60;;;1.47;;
7501;SDS011;3792;47.740;7.606;2022-07-06T02:50:00;1.90;;;1.47;;
7501;SDS011;3792;47.740;7.606;2022-07-06T02:52:27;3.47;;;1.50;;
7501;SDS011;3792;47.740;7.606;2022-07-06T02:54:54;4.83;;;1.63;;
7501;SDS011;3792;47.740;7.606;2022-07-06T02:57:21;2.67;;;1.30;;
7501;SDS011;3792;47.740;7.606;2022-07-06T02:59:48;1.70;;;1.30;;
7501;SDS011;3792;47.740;7.606;2022-07-06T03:02:17;1.50;;;1.40;;
7501;SDS011;3792;47.740;7.606;2022-07-06T03:04:44;1.40;;;1.30;;
7501;SDS011;3792;47.740;7.606;2022-07-06T03:07:11;1.93;;;1.53;;
7501;SDS011;3792;47.740;7.606;2022-07-06T03:09:38;2.27;;;1.57;;
7501;SDS011;3792;47.740;7.606;2022-07-06T03:12:06;1.20;;;1.10;;
7501;SDS011;3792;47.740;7.606;2022-07-06T03:14:33;2.13;;;1.40;;
7501;SDS011;3792;47.740;7.606;2022-07-06T03:17:00;1.70;;;1.60;;
7501;SDS011;3792;47.740;7.606;2022-07-06T03:19:29;2.67;;;1.67;;
7501;SDS011;3792;47.740;7.606;2022-07-06T03:21:56;1.47;;;1.27;;
7501;SDS011;3792;47.740;7.606;2022-07-06T03:24:23;4.63;;;1.70;;
7501;SDS011;3792;47.740;7.606;2022-07-06T03:26:50;4.43;;;1.30;;
7501;SDS011;3792;47.740;7.606;2022-07-06T03:29:18;1.83;;;1.60;;
7501;SDS011;3792;47.740;7.606;2022-07-06T03:31:45;2.37;;;1.40;;
7501;SDS011;3792;47.740;7.606;2022-07-06T03:34:12;3.23;;;1.37;;
7501;SDS011;3792;47.740;7.606;2022-07-06T03:36:41;2.00;;;1.40;;
7501;SDS011;3792;47.740;7.606;2022-07-06T03:39:08;2.13;;;1.40;;
7501;SDS011;3792;47.740;7.606;2022-07-06T03:41:35;2.20;;;1.53;;
7501;SDS011;3792;47.740;7.606;2022-07-06T03:44:02;1.53;;;1.40;;
7501;SDS011;3792;47.740;7.606;2022-07-06T03:46:29;6.90;;;1.80;;
7501;SDS011;3792;47.740;7.606;2022-07-06T03:48:56;2.37;;;1.90;;
7501;SDS011;3792;47.740;7.606;2022-07-06T03:51:24;1.50;;;1.40;;
7501;SDS011;3792;47.740;7.606;2022-07-06T03:53:52;2.87;;;1.60;;
7501;SDS011;3792;47.740;7.606;2022-07-06T03:56:19;2.23;;;1.50;;
7501;SDS011;3792;47.740;7.606;2022-07-06T03:58:55;1.60;;;1.50;;
7501;SDS011;3792;47.740;7.606;2022-07-06T04:01:23;3.30;;;1.60;;
7501;SDS011;3792;47.740;7.606;2022-07-06T04:03:51;2.67;;;1.87;;
7501;SDS011;3792;47.740;7.606;2022-07-06T04:06:18;3.23;;;1.57;;
7501;SDS011;3792;47.740;7.606;2022-07-06T04:08:45;3.53;;;1.90;;
7501;SDS011;3792;47.740;7.606;2022-07-06T04:11:14;3.87;;;1.57;;
7501;SDS011;3792;47.740;7.606;2022-07-06T04:13:41;5.10;;;1.77;;
7501;SDS011;3792;47.740;7.606;2022-07-06T04:16:08;2.97;;;1.77;;
7501;SDS011;3792;47.740;7.606;2022-07-06T04:18:35;3.20;;;1.80;;
7501;SDS011;3792;47.740;7.606;2022-07-06T04:21:02;2.50;;;1.97;;
7501;SDS011;3792;47.740;7.606;2022-07-06T04:23:29;4.63;;;2.33;;
7501;SDS011;3792;47.740;7.606;2022-07-06T04:25:57;5.23;;;2.10;;
7501;SDS011;3792;47.740;7.606;2022-07-06T04:28:25;3.83;;;1.90;;
7501;SDS011;3792;47.740;7.606;2022-07-06T04:30:52;1.97;;;1.87;;
7501;SDS011;3792;47.740;7.606;2022-07-06T04:33:19;3.70;;;2.03;;
7501;SDS011;3792;47.740;7.606;2022-07-06T04:35:46;3.30;;;2.00;;
7501;SDS011;3792;47.740;7.606;2022-07-06T04:38:13;5.07;;;2.17;;
7501;SDS011;3792;47.740;7.606;2022-07-06T04:40:40;2.93;;;2.33;;
7501;SDS011;3792;47.740;7.606;2022-07-06T04:43:08;5.83;;;2.63;;
7501;SDS011;3792;47.740;7.606;2022-07-06T04:45:36;6.40;;;1.80;;
7501;SDS011;3792;47.740;7.606;2022-07-06T04:48:03;6.43;;;2.20;;
7501;SDS011;3792;47.740;7.606;2022-07-06T04:50:33;3.47;;;2.13;;
7501;SDS011;3792;47.740;7.606;2022-07-06T04:53:00;4.77;;;1.83;;
7501;SDS011;3792;47.740;7.606;2022-07-06T04:55:27;4.37;;;2.10;;
7501;SDS011;3792;47.740;7.606;2022-07-06T04:57:54;3.50;;;2.10;;
7501;SDS011;3792;47.740;7.606;2022-07-06T05:00:21;3.63;;;2.00;;
7501;SDS011;3792;47.740;7.606;2022-07-06T05:02:50;2.53;;;1.97;;
7501;SDS011;3792;47.740;7.606;2022-07-06T05:05:17;3.73;;;2.20;;
7501;SDS011;3792;47.740;7.606;2022-07-06T05:07:44;4.67;;;2.33;;
7501;SDS011;3792;47.740;7.606;2022-07-06T05:10:11;4.53;;;2.20;;
7501;SDS011;3792;47.740;7.606;2022-07-06T05:12:39;4.50;;;2.10;;
7501;SDS011;3792;47.740;7.606;2022-07-06T05:15:06;4.83;;;2.33;;
7501;SDS011;3792;47.740;7.606;2022-07-06T05:17:34;3.50;;;2.40;;
7501;SDS011;3792;47.740;7.606;2022-07-06T05:20:03;4.83;;;2.30;;
7501;SDS011;3792;47.740;7.606;2022-07-06T05:22:31;4.60;;;2.00;;
7501;SDS011;3792;47.740;7.606;2022-07-06T05:24:58;2.23;;;1.90;;
7501;SDS011;3792;47.740;7.606;2022-07-06T05:27:26;4.47;;;2.83;;
7501;SDS011;3792;47.740;7.606;2022-07-06T05:29:54;3.60;;;2.10;;
7501;SDS011;3792;47.740;7.606;2022-07-06T05:32:21;3.07;;;2.00;;
7501;SDS011;3792;47.740;7.606;2022-07-06T05:34:49;4.17;;;2.30;;
7501;SDS011;3792;47.740;7.606;2022-07-06T05:37:18;3.67;;;2.17;;
7501;SDS011;3792;47.740;7.606;2022-07-06T05:39:45;4.43;;;2.13;;
7501;SDS011;3792;47.740;7.606;2022-07-06T05:42:14;4.57;;;2.37;;
7501;SDS011;3792;47.740;7.606;2022-07-06T05:44:41;4.80;;;2.40;;
7501;SDS011;3792;47.740;7.606;2022-07-06T05:47:08;5.10;;;2.57;;
7501;SDS011;3792;47.740;7.606;2022-07-06T05:49:52;4.53;;;2.23;;
7501;SDS011;3792;47.740;7.606;2022-07-06T05:52:38;4.67;;;2.67;;
7501;SDS011;3792;47.740;7.606;2022-07-06T05:55:06;4.07;;;3.00;;
7501;SDS011;3792;47.740;7.606;2022-07-06T05:57:33;4.17;;;2.50;;
7501;SDS011;3792;47.740;7.606;2022-07-06T06:00:00;6.73;;;2.67;;
7501;SDS011;3792;47.740;7.606;2022-07-06T06:02:35;2.93;;;2.60;;
7501;SDS011;3792;47.740;7.606;2022-07-06T06:05:04;3.80;;;3.40;;
7501;SDS011;3792;47.740;7.606;2022-07-06T06:07:32;8.83;;;3.40;;
7501;SDS011;3792;47.740;7.606;2022-07-06T06:10:02;5.67;;;3.10;;
7501;SDS011;3792;47.740;7.606;2022-07-06T06:12:30;4.73;;;3.63;;
7501;SDS011;3792;47.740;7.606;2022-07-06T06:14:58;3.50;;;3.17;;
7501;SDS011;3792;47.740;7.606;2022-07-06T06:17:25;8.10;;;3.67;;
7501;SDS011;3792;47.740;7.606;2022-07-06T06:19:52;6.37;;;3.40;;
7501;SDS011;3792;47.740;7.606;2022-07-06T06:22:19;3.60;;;3.30;;
7501;SDS011;3792;47.740;7.606;2022-07-06T06:24:47;4.17;;;3.50;;
7501;SDS011;3792;47.740;7.606;2022-07-06T06:27:15;4.57;;;3.70;;
7501;SDS011;3792;47.740;7.606;2022-07-06T06:29:43;4.17;;;3.03;;
7501;SDS011;3792;47.740;7.606;2022-07-06T06:32:10;5.50;;;3.60;;
7501;SDS011;3792;47.740;7.606;2022-07-06T06:34:38;3.90;;;3.50;;
7501;SDS011;3792;47.740;7.606;2022-07-06T06:37:05;5.33;;;3.20;;
7501;SDS011;3792;47.740;7.606;2022-07-06T06:39:32;6.43;;;3.50;;
7501;SDS011;3792;47.740;7.606;2022-07-06T06:42:00;4.13;;;3.10;;
7501;SDS011;3792;47.740;7.606;2022-07-06T06:44:28;4.40;;;3.57;;
7501;SDS011;3792;47.740;7.606;2022-07-06T06:46:55;4.47;;;3.40;;
7501;SDS011;3792;47.740;7.606;2022-07-06T06:49:22;5.97;;;3.90;;
7501;SDS011;3792;47.740;7.606;2022-07-06T06:51:49;5.20;;;3.53;;
7501;SDS011;3792;47.740;7.606;2022-07-06T06:54:16;7.47;;;2.93;;
7501;SDS011;3792;47.740;7.606;2022-07-06T06:56:43;6.37;;;3.50;;
7501;SDS011;3792;47.740;7.606;2022-07-06T06:59:10;3.63;;;2.60;;
7501;SDS011;3792;47.740;7.606;2022-07-06T07:01:39;7.47;;;3.43;;
7501;SDS011;3792;47.740;7.606;2022-07-06T07:04:06;7.23;;;3.60;;
7501;SDS011;3792;47.740;7.606;2022-07-06T07:06:33;6.27;;;3.80;;
7501;SDS011;3792;47.740;7.606;2022-07-06T07:09:00;3.60;;;3.00;;
7501;SDS011;3792;47.740;7.606;2022-07-06T07:11:28;4.50;;;3.43;;
7501;SDS011;3792;47.740;7.606;2022-07-06T07:13:55;5.63;;;3.53;;
7501;SDS011;3792;47.740;7.606;2022-07-06T07:16:23;7.87;;;3.60;;
7501;SDS011;3792;47.740;7.606;2022-07-06T07:18:52;3.83;;;3.30;;
7501;SDS011;3792;47.740;7.606;2022-07-06T07:21:19;3.83;;;3.40;;
7501;SDS011;3792;47.740;7.606;2022-07-06T07:23:46;9.63;;;4.07;;
7501;SDS011;3792;47.740;7.606;2022-07-06T07:26:14;6.00;;;3.53;;
7501;SDS011;3792;47.740;7.606;2022-07-06T07:28:41;3.67;;;3.37;;
7501;SDS011;3792;47.740;7.606;2022-07-06T07:31:09;3.90;;;3.10;;
7501;SDS011;3792;47.740;7.606;2022-07-06T07:33:36;8.00;;;3.37;;
7501;SDS011;3792;47.740;7.606;2022-07-06T07:36:04;3.70;;;3.40;;
7501;SDS011;3792;47.740;7.606;2022-07-06T07:38:33;4.23;;;3.73;;
7501;SDS011;3792;47.740;7.606;2022-07-06T07:41:00;4.43;;;3.33;;
7501;SDS011;3792;47.740;7.606;2022-07-06T07:43:27;3.27;;;2.93;;
7501;SDS011;3792;47.740;7.606;2022-07-06T07:45:54;6.77;;;3.83;;
7501;SDS011;3792;47.740;7.606;2022-07-06T07:48:21;7.00;;;3.57;;
7501;SDS011;3792;47.740;7.606;2022-07-06T07:50:48;4.77;;;3.37;;
7501;SDS011;3792;47.740;7.606;2022-07-06T07:53:16;4.33;;;3.57;;
7501;SDS011;3792;47.740;7.606;2022-07-06T07:55:44;7.87;;;3.37;;
7501;SDS011;3792;47.740;7.606;2022-07-06T07:58:11;6.90;;;3.67;;
7501;SDS011;3792;47.740;7.606;2022-07-06T08:00:38;6.33;;;3.43;;
7501;SDS011;3792;47.740;7.606;2022-07-06T08:03:05;5.20;;;3.50;;
7501;SDS011;3792;47.740;7.606;2022-07-06T08:05:32;6.90;;;3.93;;
7501;SDS011;3792;47.740;7.606;2022-07-06T08:07:59;8.00;;;3.80;;
7501;SDS011;3792;47.740;7.606;2022-07-06T08:10:27;5.40;;;3.30;;
7501;SDS011;3792;47.740;7.606;2022-07-06T08:12:54;5.50;;;3.47;;
7501;SDS011;3792;47.740;7.606;2022-07-06T08:15:21;6.30;;;4.20;;
7501;SDS011;3792;47.740;7.606;2022-07-06T08:17:48;6.30;;;4.20;;
7501;SDS011;3792;47.740;7.606;2022-07-06T08:20:16;6.33;;;3.63;;
7501;SDS011;3792;47.740;7.606;2022-07-06T08:22:43;5.63;;;3.33;;
7501;SDS011;3792;47.740;7.606;2022-07-06T08:25:10;6.03;;;3.50;;
7501;SDS011;3792;47.740;7.606;2022-07-06T08:27:39;6.63;;;3.30;;
7501;SDS011;3792;47.740;7.606;2022-07-06T08:30:07;3.70;;;3.40;;
7501;SDS011;3792;47.740;7.606;2022-07-06T08:32:36;9.13;;;3.70;;
7501;SDS011;3792;47.740;7.606;2022-07-06T08:35:04;8.63;;;4.00;;
7501;SDS011;3792;47.740;7.606;2022-07-06T08:37:32;6.87;;;3.30;;
7501;SDS011;3792;47.740;7.606;2022-07-06T08:39:59;7.27;;;3.83;;
7501;SDS011;3792;47.740;7.606;2022-07-06T08:42:29;5.57;;;3.33;;
7501;SDS011;3792;47.740;7.606;2022-07-06T08:45:00;4.10;;;3.50;;
7501;SDS011;3792;47.740;7.606;2022-07-06T08:47:29;4.10;;;3.70;;
7501;SDS011;3792;47.740;7.606;2022-07-06T08:49:57;6.70;;;3.67;;
7501;SDS011;3792;47.740;7.606;2022-07-06T08:52:24;5.43;;;3.67;;
7501;SDS011;3792;47.740;7.606;2022-07-06T08:54:51;7.63;;;3.30;;
7501;SDS011;3792;47.740;7.606;2022-07-06T08:57:19;7.37;;;3.23;;
7501;SDS011;3792;47.740;7.606;2022-07-06T08:59:46;5.43;;;3.23;;
7501;SDS011;3792;47.740;7.606;2022-07-06T09:02:14;3.30;;;2.77;;
7501;SDS011;3792;47.740;7.606;2022-07-06T09:04:42;3.43;;;3.10;;
7501;SDS011;3792;47.740;7.606;2022-07-06T09:07:10;3.23;;;2.60;;
7501;SDS011;3792;47.740;7.606;2022-07-06T09:09:38;4.27;;;2.93;;
7501;SDS011;3792;47.740;7.606;2022-07-06T09:12:09;5.00;;;3.03;;
7501;SDS011;3792;47.740;7.606;2022-07-06T09:14:39;4.70;;;2.70;;
7501;SDS011;3792;47.740;7.606;2022-07-06T09:17:06;4.97;;;2.80;;
7501;SDS011;3792;47.740;7.606;2022-07-06T09:19:35;4.07;;;2.47;;
7501;SDS011;3792;47.740;7.606;2022-07-06T09:22:02;2.87;;;2.50;;
7501;SDS011;3792;47.740;7.606;2022-07-06T09:24:30;5.50;;;3.03;;
7501;SDS011;3792;47.740;7.606;2022-07-06T09:26:58;4.83;;;3.30;;
7501;SDS011;3792;47.740;7.606;2022-07-06T09:29:28;5.47;;;2.83;;
7501;SDS011;3792;47.740;7.606;2022-07-06T09:31:57;6.20;;;3.27;;
7501;SDS011;3792;47.740;7.606;2022-07-06T09:34:24;3.37;;;2.50;;
7501;SDS011;3792;47.740;7.606;2022-07-06T09:37:07;8.17;;;3.10;;
7501;SDS011;3792;47.740;7.606;2022-07-06T09:39:36;7.40;;;3.10;;
7501;SDS011;3792;47.740;7.606;2022-07-06T09:42:03;2.90;;;2.30;;
7501;SDS011;3792;47.740;7.606;2022-07-06T09:44:34;10.63;;;2.80;;
7501;SDS011;3792;47.740;7.606;2022-07-06T09:47:03;4.13;;;2.57;;
7501;SDS011;3792;47.740;7.606;2022-07-06T09:49:32;5.23;;;3.10;;
7501;SDS011;3792;47.740;7.606;2022-07-06T09:52:00;5.07;;;3.23;;
7501;SDS011;3792;47.740;7.606;2022-07-06T09:54:29;4.63;;;2.87;;
7501;SDS011;3792;47.740;7.606;2022-07-06T09:56:57;5.13;;;2.77;;
7501;SDS011;3792;47.740;7.606;2022-07-06T09:59:25;4.67;;;3.00;;
7501;SDS011;3792;47.740;7.606;2022-07-06T10:01:53;4.10;;;2.60;;
7501;SDS011;3792;47.740;7.606;2022-07-06T10:04:22;5.63;;;2.80;;
7501;SDS011;3792;47.740;7.606;2022-07-06T10:06:50;4.30;;;2.50;;
7501;SDS011;3792;47.740;7.606;2022-07-06T10:09:18;6.67;;;2.97;;
7501;SDS011;3792;47.740;7.606;2022-07-06T10:11:49;4.13;;;2.87;;
7501;SDS011;3792;47.740;7.606;2022-07-06T10:14:18;4.07;;;3.20;;
7501;SDS011;3792;47.740;7.606;2022-07-06T10:16:47;7.60;;;2.70;;
7501;SDS011;3792;47.740;7.606;2022-07-06T10:19:16;6.27;;;2.80;;
7501;SDS011;3792;47.740;7.606;2022-07-06T10:21:44;4.33;;;2.60;;
7501;SDS011;3792;47.740;7.606;2022-07-06T10:24:12;5.47;;;2.93;;
7501;SDS011;3792;47.740;7.606;2022-07-06T10:26:40;3.20;;;2.40;;
7501;SDS011;3792;47.740;7.606;2022-07-06T10:29:09;2.63;;;2.43;;
7501;SDS011;3792;47.740;7.606;2022-07-06T10:31:37;7.73;;;2.73;;
7501;SDS011;3792;47.740;7.606;2022-07-06T10:34:06;4.67;;;2.30;;
7501;SDS011;3792;47.740;7.606;2022-07-06T10:36:37;2.57;;;2.10;;
7501;SDS011;3792;47.740;7.606;2022-07-06T10:39:05;4.17;;;1.73;;
7501;SDS011;3792;47.740;7.606;2022-07-06T10:41:46;2.77;;;2.30;;
7501;SDS011;3792;47.740;7.606;2022-07-06T10:44:18;3.80;;;1.83;;
7501;SDS011;3792;47.740;7.606;2022-07-06T10:46:50;4.27;;;2.07;;
7501;SDS011;3792;47.740;7.606;2022-07-06T10:49:18;2.40;;;2.03;;
7501;SDS011;3792;47.740;7.606;2022-07-06T10:51:46;2.47;;;1.83;;
7501;SDS011;3792;47.740;7.606;2022-07-06T10:54:14;4.73;;;2.17;;
7501;SDS011;3792;47.740;7.606;2022-07-06T10:56:43;4.47;;;2.00;;
7501;SDS011;3792;47.740;7.606;2022-07-06T10:59:11;3.33;;;1.70;;
7501;SDS011;3792;47.740;7.606;2022-07-06T11:01:41;2.60;;;2.03;;
7501;SDS011;3792;47.740;7.606;2022-07-06T11:04:37;3.67;;;2.10;;
7501;SDS011;3792;47.740;7.606;2022-07-06T11:07:08;5.23;;;2.20;;
7501;SDS011;3792;47.740;7.606;2022-07-06T11:09:36;4.37;;;2.00;;
7501;SDS011;3792;47.740;7.606;2022-07-06T11:12:14;3.97;;;2.20;;
7501;SDS011;3792;47.740;7.606;2022-07-06T11:14:43;2.93;;;2.00;;
7501;SDS011;3792;47.740;7.606;2022-07-06T11:17:13;4.47;;;1.90;;
7501;SDS011;3792;47.740;7.606;2022-07-06T11:19:47;2.67;;;1.80;;
7501;SDS011;3792;47.740;7.606;2022-07-06T11:22:16;6.30;;;2.13;;
7501;SDS011;3792;47.740;7.606;2022-07-06T11:24:45;2.63;;;2.00;;
7501;SDS011;3792;47.740;7.606;2022-07-06T11:27:14;3.33;;;1.87;;
7501;SDS011;3792;47.740;7.606;2022-07-06T11:29:41;3.13;;;1.70;;
7501;SDS011;3792;47.740;7.606;2022-07-06T11:32:10;3.30;;;1.80;;
7501;SDS011;3792;47.740;7.606;2022-07-06T11:34:40;4.20;;;2.10;;
7501;SDS011;3792;47.740;7.606;2022-07-06T11:37:08;5.03;;;2.03;;
7501;SDS011;3792;47.740;7.606;2022-07-06T11:39:37;5.03;;;2.20;;
7501;SDS011;3792;47.740;7.606;2022-07-06T11:42:06;8.53;;;2.70;;
7501;SDS011;3792;47.740;7.606;2022-07-06T11:44:34;4.33;;;2.00;;
7501;SDS011;3792;47.740;7.606;2022-07-06T11:47:02;4.53;;;1.80;;
7501;SDS011;3792;47.740;7.606;2022-07-06T11:49:31;4.30;;;2.23;;
7501;SDS011;3792;47.740;7.606;2022-07-06T11:51:59;5.90;;;2.00;;
7501;SDS011;3792;47.740;7.606;2022-07-06T11:54:27;4.80;;;1.87;;
7501;SDS011;3792;47.740;7.606;2022-07-06T11:56:55;3.20;;;1.70;;
7501;SDS011;3792;47.740;7.606;2022-07-06T11:59:24;2.57;;;1.93;;
7501;SDS011;3792;47.740;7.606;2022-07-06T12:01:57;4.07;;;1.83;;
7501;SDS011;3792;47.740;7.606;2022-07-06T12:04:25;5.70;;;2.30;;
7501;SDS011;3792;47.740;7.606;2022-07-06T12:06:54;2.23;;;1.70;;
7501;SDS011;3792;47.740;7.606;2022-07-06T12:09:26;5.70;;;1.90;;
7501;SDS011;3792;47.740;7.606;2022-07-06T12:11:57;3.67;;;2.40;;
7501;SDS011;3792;47.740;7.606;2022-07-06T12:14:27;6.23;;;2.10;;
7501;SDS011;3792;47.740;7.606;2022-07-06T12:16:54;3.03;;;1.90;;
7501;SDS011;3792;47.740;7.606;2022-07-06T12:19:22;3.90;;;2.13;;
7501;SDS011;3792;47.740;7.606;2022-07-06T12:21:50;4.30;;;2.13;;
7501;SDS011;3792;47.740;7.606;2022-07-06T12:24:19;2.63;;;2.10;;
7501;SDS011;3792;47.740;7.606;2022-07-06T12:26:49;2.40;;;2.20;;
7501;SDS011;3792;47.740;7.606;2022-07-06T12:29:20;2.90;;;1.83;;
7501;SDS011;3792;47.740;7.606;2022-07-06T12:31:49;3.10;;;1.90;;
7501;SDS011;3792;47.740;7.606;2022-07-06T12:34:18;2.57;;;1.90;;
7501;SDS011;3792;47.740;7.606;2022-07-06T12:36:46;2.97;;;2.00;;
7501;SDS011;3792;47.740;7.606;2022-07-06T12:39:15;5.40;;;2.17;;
7501;SDS011;3792;47.740;7.606;2022-07-06T12:41:46;4.33;;;2.03;;
7501;SDS011;3792;47.740;7.606;2022-07-06T12:44:16;3.37;;;2.17;;
7501;SDS011;3792;47.740;7.606;2022-07-06T12:46:45;7.00;;;2.27;;
7501;SDS011;3792;47.740;7.606;2022-07-06T12:49:17;3.40;;;1.77;;
7501;SDS011;3792;47.740;7.606;2022-07-06T12:51:49;2.87;;;1.70;;
7501;SDS011;3792;47.740;7.606;2022-07-06T12:54:21;3.93;;;1.60;;
7501;SDS011;3792;47.740;7.606;2022-07-06T12:56:57;3.17;;;1.73;;
7501;SDS011;3792;47.740;7.606;2022-07-06T12:59:38;2.80;;;2.00;;
7501;SDS011;3792;47.740;7.606;2022-07-06T13:02:07;1.90;;;1.80;;
7501;SDS011;3792;47.740;7.606;2022-07-06T13:04:35;3.77;;;2.20;;
7501;SDS011;3792;47.740;7.606;2022-07-06T13:07:03;3.27;;;1.93;;
7501;SDS011;3792;47.740;7.606;2022-07-06T13:09:31;3.13;;;1.70;;
7501;SDS011;3792;47.740;7.606;2022-07-06T13:11:59;3.77;;;2.00;;
7501;SDS011;3792;47.740;7.606;2022-07-06T13:14:26;4.30;;;2.33;;
7501;SDS011;3792;47.740;7.606;2022-07-06T13:16:53;4.07;;;2.10;;
7501;SDS011;3792;47.740;7.606;2022-07-06T13:19:21;8.13;;;2.53;;
7501;SDS011;3792;47.740;7.606;2022-07-06T13:21:48;4.37;;;2.07;;
7501;SDS011;3792;47.740;7.606;2022-07-06T13:24:16;3.87;;;2.00;;
7501;SDS011;3792;47.740;7.606;2022-07-06T13:26:44;4.90;;;2.20;;
7501;SDS011;3792;47.740;7.606;2022-07-06T13:29:12;4.47;;;1.83;;
7501;SDS011;3792;47.740;7.606;2022-07-06T13:31:40;2.77;;;2.10;;
7501;SDS011;3792;47.740;7.606;2022-07-06T13:34:07;7.57;;;1.80;;
7501;SDS011;3792;47.740;7.606;2022-07-06T13:36:34;2.27;;;2.13;;
7501;SDS011;3792;47.740;7.606;2022-07-06T13:39:02;2.10;;;1.90;;
7501;SDS011;3792;47.740;7.606;2022-07-06T13:41:31;3.50;;;1.67;;
7501;SDS011;3792;47.740;7.606;2022-07-06T13:44:00;4.53;;;1.83;;
7501;SDS011;3792;47.740;7.606;2022-07-06T13:46:30;5.70;;;1.90;;
7501;SDS011;3792;47.740;7.606;2022-07-06T13:48:57;3.73;;;2.10;;
7501;SDS011;3792;47.740;7.606;2022-07-06T13:51:25;2.00;;;1.90;;
7501;SDS011;3792;47.740;7.606;2022-07-06T13:53:53;3.33;;;1.90;;
7501;SDS011;3792;47.740;7.606;2022-07-06T13:56:20;5.93;;;1.90;;
7501;SDS011;3792;47.740;7.606;2022-07-06T13:58:48;3.50;;;1.80;;
7501;SDS011;3792;47.740;7.606;2022-07-06T14:01:15;2.30;;;2.10;;
7501;SDS011;3792;47.740;7.606;2022-07-06T14:03:44;2.93;;;2.10;;
7501;SDS011;3792;47.740;7.606;2022-07-06T14:06:11;6.10;;;2.17;;
7501;SDS011;3792;47.740;7.606;2022-07-06T14:08:40;2.20;;;1.97;;
7501;SDS011;3792;47.740;7.606;2022-07-06T14:11:07;4.03;;;2.10;;
7501;SDS011;3792;47.740;7.606;2022-07-06T14:13:35;5.23;;;2.37;;
7501;SDS011;3792;47.740;7.606;2022-07-06T14:16:03;6.47;;;2.30;;
7501;SDS011;3792;47.740;7.606;2022-07-06T14:18:31;6.47;;;2.33;;
7501;SDS011;3792;47.740;7.606;2022-07-06T14:21:00;2.33;;;2.13;;
7501;SDS011;3792;47.740;7.606;2022-07-06T14:23:27;3.43;;;2.03;;
7501;SDS011;3792;47.740;7.606;2022-07-06T14:25:55;4.47;;;1.97;;
7501;SDS011;3792;47.740;7.606;2022-07-06T14:28:22;5.17;;;2.30;;
7501;SDS011;3792;47.740;7.606;2022-07-06T14:30:50;5.13;;;1.90;;
7501;SDS011;3792;47.740;7.606;2022-07-06T14:33:18;2.33;;;2.13;;
7501;SDS011;3792;47.740;7.606;2022-07-06T14:35:46;3.20;;;2.47;;
7501;SDS011;3792;47.740;7.606;2022-07-06T14:38:16;5.67;;;2.10;;
7501;SDS011;3792;47.740;7.606;2022-07-06T14:40:44;2.93;;;2.20;;
7501;SDS011;3792;47.740;7.606;2022-07-06T14:43:14;3.43;;;2.50;;
7501;SDS011;3792;47.740;7.606;2022-07-06T14:45:42;3.17;;;2.37;;
7501;SDS011;3792;47.740;7.606;2022-07-06T14:48:11;7.40;;;2.20;;
7501;SDS011;3792;47.740;7.606;2022-07-06T14:50:38;2.87;;;2.40;;
7501;SDS011;3792;47.740;7.606;2022-07-06T14:53:05;3.90;;;2.10;;
7501;SDS011;3792;47.740;7.606;2022-07-06T14:55:34;4.73;;;2.40;;
7501;SDS011;3792;47.740;7.606;2022-07-06T14:58:01;3.57;;;2.30;;
7501;SDS011;3792;47.740;7.606;2022-07-06T15:00:28;3.23;;;2.20;;
7501;SDS011;3792;47.740;7.606;2022-07-06T15:02:55;8.43;;;2.47;;
7501;SDS011;3792;47.740;7.606;2022-07-06T15:05:22;4.57;;;2.07;;
7501;SDS011;3792;47.740;7.606;2022-07-06T15:07:49;4.73;;;2.47;;
7501;SDS011;3792;47.740;7.606;2022-07-06T15:10:16;6.30;;;2.50;;
7501;SDS011;3792;47.740;7.606;2022-07-06T15:12:45;2.93;;;1.87;;
7501;SDS011;3792;47.740;7.606;2022-07-06T15:15:12;4.77;;;2.30;;
7501;SDS011;3792;47.740;7.606;2022-07-06T15:17:39;2.50;;;2.17;;
7501;SDS011;3792;47.740;7.606;2022-07-06T15:20:07;3.90;;;2.20;;
7501;SDS011;3792;47.740;7.606;2022-07-06T15:22:36;2.87;;;2.10;;